createdAt,value
2022-12-05T00:00:29.410Z,101732.28
2022-12-05T00:02:31.561Z,101735.63
2022-12-05T00:04:33.750Z,101733.25
2022-12-05T00:06:36.933Z,101735.81
2022-12-05T00:08:39.456Z,101729.09
2022-12-05T00:10:41.549Z,101739.53
2022-12-05T00:12:43.605Z,101729.41
2022-12-05T00:14:45.649Z,101738.59
2022-12-05T00:16:48.051Z,101735.16
2022-12-05T00:18:50.968Z,101731.72
2022-12-05T00:20:52.928Z,101734.34
2022-12-05T00:22:55.019Z,101742.69
2022-12-05T00:24:57.092Z,101731.66
2022-12-05T00:26:59.179Z,101736.69
2022-12-05T00:29:01.320Z,101737.41
2022-12-05T00:31:13.530Z,101735.88
2022-12-05T00:33:15.650Z,101729.22
2022-12-05T00:35:17.844Z,101735.31
2022-12-05T00:37:19.950Z,101736.53
2022-12-05T00:39:22.036Z,101732.53
2022-12-05T00:41:27.099Z,101730.03
2022-12-05T00:43:29.197Z,101731.41
2022-12-05T00:45:31.296Z,101731.16
2022-12-05T00:47:37.303Z,101736.03
2022-12-05T00:49:39.249Z,101729.41
2022-12-05T00:51:43.100Z,101724.31
2022-12-05T00:53:46.349Z,101732.13
2022-12-05T00:55:48.311Z,101729.56
2022-12-05T00:57:50.347Z,101721.16
2022-12-05T00:59:52.411Z,101722.97
2022-12-05T01:01:54.571Z,101725.00
2022-12-05T01:03:58.168Z,101726.19
2022-12-05T01:06:00.570Z,101725.53
2022-12-05T01:08:02.709Z,101731.47
2022-12-05T01:10:05.884Z,101726.66
2022-12-05T01:12:08.370Z,101724.03
2022-12-05T01:14:12.700Z,101728.28
2022-12-05T01:16:18.945Z,101729.56
2022-12-05T01:18:22.770Z,101735.09
2022-12-05T01:20:24.760Z,101734.50
2022-12-05T01:22:26.812Z,101731.94
2022-12-05T01:24:30.308Z,101731.88
2022-12-05T01:26:32.579Z,101731.22
2022-12-05T01:28:35.976Z,101739.88
2022-12-05T01:30:40.028Z,101733.69
2022-12-05T01:32:42.470Z,101735.38
2022-12-05T01:34:44.820Z,101740.56
2022-12-05T01:36:47.620Z,101738.34
2022-12-05T01:38:50.509Z,101739.63
2022-12-05T01:41:01.178Z,101740.91
2022-12-05T01:43:03.828Z,101745.38
2022-12-05T01:45:22.989Z,101744.59
2022-12-05T01:47:28.297Z,101745.38
2022-12-05T01:49:36.531Z,101753.16
2022-12-05T01:51:41.827Z,101744.59
2022-12-05T01:53:43.890Z,101753.06
2022-12-05T01:55:48.379Z,101754.16
2022-12-05T01:57:50.792Z,101757.16
2022-12-05T02:00:00.043Z,101755.41
2022-12-05T02:02:03.520Z,101773.72
2022-12-05T02:04:06.540Z,101761.56
2022-12-05T02:06:09.857Z,101764.19
2022-12-05T02:08:12.438Z,101762.22
2022-12-05T02:10:15.250Z,101765.72
2022-12-05T02:12:20.398Z,101770.34
2022-12-05T02:14:32.377Z,101769.47
2022-12-05T02:16:47.306Z,101769.22
2022-12-05T02:19:08.536Z,101764.75
2022-12-05T02:21:20.048Z,101761.31
2022-12-05T02:23:36.611Z,101758.84
2022-12-05T02:25:57.671Z,101762.78
2022-12-05T02:28:10.630Z,101755.03
2022-12-05T02:30:19.925Z,101762.22
2022-12-05T02:32:31.455Z,101761.13
2022-12-05T02:34:45.545Z,101756.34
2022-12-05T02:36:55.284Z,101768.13
2022-12-05T02:39:11.609Z,101763.16
2022-12-05T02:41:19.474Z,101769.97
2022-12-05T02:43:36.624Z,101767.47
2022-12-05T02:45:41.601Z,101767.72
2022-12-05T02:47:47.830Z,101768.28
2022-12-05T02:49:53.095Z,101773.72
2022-12-05T02:51:59.074Z,101770.75
2022-12-05T02:54:04.730Z,101771.50
2022-12-05T02:56:07.834Z,101770.97
2022-12-05T02:58:15.289Z,101768.13
2022-12-05T03:00:17.629Z,101773.84
2022-12-05T03:02:28.427Z,101764.75
2022-12-05T03:04:31.806Z,101766.53
2022-12-05T03:06:39.585Z,101766.75
2022-12-05T03:08:48.779Z,101768.19
2022-12-05T03:10:53.015Z,101763.97
2022-12-05T03:13:04.069Z,101773.25
2022-12-05T03:15:15.673Z,101764.03
2022-12-05T03:17:23.299Z,101764.09
2022-12-05T03:19:37.979Z,101768.59
2022-12-05T03:21:50.229Z,101767.81
2022-12-05T03:23:58.445Z,101774.59
2022-12-05T03:26:14.669Z,101773.88
2022-12-05T03:28:25.524Z,101771.38
2022-12-05T03:30:27.290Z,101766.13
2022-12-05T03:32:42.485Z,101774.00
2022-12-05T03:35:01.490Z,101771.38
2022-12-05T03:37:10.822Z,101773.88
2022-12-05T03:39:23.924Z,101770.50
2022-12-05T03:41:34.981Z,101776.91
2022-12-05T03:43:47.841Z,101773.41
2022-12-05T03:45:53.252Z,101774.34
2022-12-05T03:48:10.211Z,101777.34
2022-12-05T03:50:19.199Z,101783.78
2022-12-05T03:52:29.195Z,101779.47
2022-12-05T03:54:38.175Z,101786.53
2022-12-05T03:56:46.829Z,101785.72
2022-12-05T03:58:55.589Z,101784.09
2022-12-05T04:01:01.789Z,101788.66
2022-12-05T04:03:08.571Z,101792.88
2022-12-05T04:05:16.674Z,101788.75
2022-12-05T04:07:20.604Z,101795.78
2022-12-05T04:09:28.884Z,101788.75
2022-12-05T04:11:34.779Z,101794.63
2022-12-05T04:13:44.522Z,101792.81
2022-12-05T04:16:03.395Z,101799.63
2022-12-05T04:18:06.799Z,101795.53
2022-12-05T04:20:19.319Z,101796.03
2022-12-05T04:22:22.666Z,101797.88
2022-12-05T04:24:39.285Z,101798.19
2022-12-05T04:26:50.169Z,101799.94
2022-12-05T04:28:52.005Z,101801.69
2022-12-05T04:31:09.759Z,101799.94
2022-12-05T04:33:16.114Z,101808.44
2022-12-05T04:35:26.469Z,101799.22
2022-12-05T04:37:34.224Z,101801.03
2022-12-05T04:39:44.389Z,101803.59
2022-12-05T04:41:52.860Z,101807.03
2022-12-05T04:43:59.268Z,101804.41
2022-12-05T04:46:06.340Z,101806.22
2022-12-05T04:48:13.394Z,101810.00
2022-12-05T04:50:17.884Z,101804.22
2022-12-05T04:52:20.036Z,101807.44
2022-12-05T04:54:28.373Z,101805.91
2022-12-05T04:56:34.599Z,101805.91
2022-12-05T04:58:36.482Z,101807.66
2022-12-05T05:00:48.852Z,101811.09
2022-12-05T05:02:51.581Z,101818.00
2022-12-05T05:04:58.043Z,101821.81
2022-12-05T05:07:00.081Z,101816.47
2022-12-05T05:09:01.891Z,101817.41
2022-12-05T05:11:15.566Z,101824.34
2022-12-05T05:13:17.314Z,101828.69
2022-12-05T05:15:19.184Z,101821.31
2022-12-05T05:17:20.987Z,101830.63
2022-12-05T05:19:23.314Z,101825.50
2022-12-05T05:21:31.295Z,101825.06
2022-12-05T05:23:33.014Z,101834.84
2022-12-05T05:25:34.909Z,101829.00
2022-12-05T05:27:36.699Z,101831.56
2022-12-05T05:29:38.440Z,101827.56
2022-12-05T05:31:41.214Z,101824.69
2022-12-05T05:33:43.072Z,101834.72
2022-12-05T05:35:44.825Z,101836.47
2022-12-05T05:37:46.645Z,101831.50
2022-12-05T05:39:48.394Z,101834.78
2022-12-05T05:41:50.269Z,101839.50
2022-12-05T05:43:52.885Z,101841.59
2022-12-05T05:45:54.709Z,101835.13
2022-12-05T05:47:56.499Z,101837.97
2022-12-05T05:49:58.594Z,101838.94
2022-12-05T05:52:00.633Z,101830.47
2022-12-05T05:54:02.472Z,101844.50
2022-12-05T05:56:05.879Z,101843.16
2022-12-05T05:58:08.674Z,101848.28
2022-12-05T06:00:11.464Z,101852.72
2022-12-05T06:02:13.253Z,101856.97
2022-12-05T06:04:15.133Z,101850.97
2022-12-05T06:06:17.339Z,101850.38
2022-12-05T06:08:19.112Z,101849.56
2022-12-05T06:10:21.034Z,101857.56
2022-12-05T06:12:23.324Z,101849.09
2022-12-05T06:14:25.119Z,101854.41
2022-12-05T06:16:26.959Z,101856.91
2022-12-05T06:18:28.792Z,101858.84
2022-12-05T06:20:30.635Z,101856.97
2022-12-05T06:22:32.624Z,101858.03
2022-12-05T06:24:34.405Z,101858.25
2022-12-05T06:26:36.144Z,101852.03
2022-12-05T06:28:39.532Z,101852.03
2022-12-05T06:30:41.295Z,101858.91
2022-12-05T06:32:43.086Z,101857.38
2022-12-05T06:34:44.880Z,101855.53
2022-12-05T06:36:46.620Z,101864.84
2022-12-05T06:38:49.198Z,101860.66
2022-12-05T06:40:50.995Z,101862.88
2022-12-05T06:42:52.747Z,101863.63
2022-12-05T06:44:54.489Z,101862.06
2022-12-05T06:46:56.660Z,101866.41
2022-12-05T06:48:59.527Z,101864.84
2022-12-05T06:51:01.408Z,101869.91
2022-12-05T06:53:03.209Z,101865.97
2022-12-05T06:55:05.907Z,101870.38
2022-12-05T06:57:07.744Z,101864.56
2022-12-05T06:59:09.650Z,101871.56
2022-12-05T07:01:23.570Z,101882.50
2022-12-05T07:03:25.602Z,101880.75
2022-12-05T07:05:27.424Z,101873.00
2022-12-05T07:07:30.136Z,101881.56
2022-12-05T07:09:41.412Z,101881.81
2022-12-05T07:11:43.205Z,101886.19
2022-12-05T07:13:45.247Z,101885.19
2022-12-05T07:15:48.299Z,101892.13
2022-12-05T07:17:50.060Z,101896.06
2022-12-05T07:19:53.413Z,101891.81
2022-12-05T07:21:55.300Z,101893.50
2022-12-05T07:23:57.164Z,101892.97
2022-12-05T07:25:59.049Z,101898.25
2022-12-05T07:28:00.944Z,101899.44
2022-12-05T07:30:02.980Z,101898.78
2022-12-05T07:32:05.092Z,101905.59
2022-12-05T07:34:06.965Z,101903.19
2022-12-05T07:36:12.440Z,101908.16
2022-12-05T07:38:14.259Z,101912.78
2022-12-05T07:40:16.474Z,101920.41
2022-12-05T07:42:18.386Z,101921.44
2022-12-05T07:44:20.220Z,101922.09
2022-12-05T07:46:23.026Z,101925.22
2022-12-05T07:48:24.905Z,101918.00
2022-12-05T07:50:26.751Z,101925.59
2022-12-05T07:52:28.729Z,101928.31
2022-12-05T07:54:30.632Z,101930.97
2022-12-05T07:56:32.645Z,101935.00
2022-12-05T07:58:35.937Z,101941.81
2022-12-05T08:00:37.805Z,101950.16
2022-12-05T08:02:40.920Z,101943.56
2022-12-05T08:04:43.125Z,101946.38
2022-12-05T08:06:44.950Z,101948.69
2022-12-05T08:08:50.280Z,101949.50
2022-12-05T08:10:52.315Z,101952.13
2022-12-05T08:12:54.215Z,101953.00
2022-12-05T08:14:56.077Z,101951.09
2022-12-05T08:16:58.109Z,101961.44
2022-12-05T08:19:03.341Z,101959.19
2022-12-05T08:21:07.517Z,101954.69
2022-12-05T08:23:09.460Z,101959.19
2022-12-05T08:25:11.438Z,101956.97
2022-12-05T08:27:13.354Z,101966.88
2022-12-05T08:29:16.150Z,101966.06
2022-12-05T08:31:19.973Z,101966.94
2022-12-05T08:33:22.054Z,101963.59
2022-12-05T08:35:24.015Z,101962.84
2022-12-05T08:37:25.854Z,101953.19
2022-12-05T08:39:27.825Z,101962.91
2022-12-05T08:41:30.488Z,101963.72
2022-12-05T08:43:32.959Z,101965.56
2022-12-05T08:45:34.925Z,101962.44
2022-12-05T08:47:37.300Z,101962.28
2022-12-05T08:49:39.261Z,101963.31
2022-12-05T08:51:42.345Z,101959.25
2022-12-05T08:53:44.984Z,101961.06
2022-12-05T08:55:47.498Z,101963.63
2022-12-05T08:57:49.384Z,101969.69
2022-12-05T08:59:51.310Z,101964.72
2022-12-05T09:01:53.344Z,101967.34
2022-12-05T09:03:55.339Z,101970.34
2022-12-05T09:06:07.676Z,101967.84
2022-12-05T09:08:09.694Z,101972.41
2022-12-05T09:10:11.715Z,101969.03
2022-12-05T09:12:15.004Z,101970.72
2022-12-05T09:14:17.842Z,101973.41
2022-12-05T09:16:23.241Z,101964.56
2022-12-05T09:18:25.175Z,101972.53
2022-12-05T09:20:27.020Z,101978.47
2022-12-05T09:22:28.933Z,101978.63
2022-12-05T09:24:30.860Z,101980.41
2022-12-05T09:26:32.935Z,101986.41
2022-12-05T09:28:35.534Z,101989.94
2022-12-05T09:30:37.856Z,101991.03
2022-12-05T09:32:39.801Z,101984.94
2022-12-05T09:34:41.674Z,101990.16
2022-12-05T09:36:44.130Z,101995.53
2022-12-05T09:38:46.965Z,101986.06
2022-12-05T09:41:00.929Z,101992.41
2022-12-05T09:43:08.615Z,102001.53
2022-12-05T09:45:34.583Z,102000.13
2022-12-05T09:47:46.046Z,102004.53
2022-12-05T09:49:54.000Z,101999.47
2022-12-05T09:51:58.384Z,102006.59
2022-12-05T09:54:00.335Z,102000.22
2022-12-05T09:56:09.859Z,102004.88
2022-12-05T09:58:18.874Z,102014.00
2022-12-05T10:00:21.254Z,102009.22
2022-12-05T10:02:23.674Z,102009.38
2022-12-05T10:04:35.099Z,102017.16
2022-12-05T10:06:56.838Z,102008.84
2022-12-05T10:09:19.780Z,102016.56
2022-12-05T10:11:34.389Z,102018.91
2022-12-05T10:13:54.279Z,102018.25
2022-12-05T10:16:01.007Z,102019.59
2022-12-05T10:18:11.076Z,102025.72
2022-12-05T10:20:19.374Z,102020.97
2022-12-05T10:22:29.934Z,102023.66
2022-12-05T10:24:32.239Z,102007.56
2022-12-05T10:26:41.961Z,102021.84
2022-12-05T10:29:02.566Z,102015.72
2022-12-05T10:31:10.269Z,102021.84
2022-12-05T10:33:18.979Z,102014.38
2022-12-05T10:35:21.385Z,102015.41
2022-12-05T10:37:24.516Z,102015.47
2022-12-05T10:39:27.425Z,102015.69
2022-12-05T10:41:29.460Z,102016.50
2022-12-05T10:43:33.715Z,102021.84
2022-12-05T10:45:42.176Z,102024.16
2022-12-05T10:47:44.750Z,102024.41
2022-12-05T10:49:47.356Z,102019.94
2022-12-05T10:51:50.730Z,102016.84
2022-12-05T10:53:54.496Z,102023.75
2022-12-05T10:56:28.740Z,102016.63
2022-12-05T10:58:24.239Z,102015.25
2022-12-05T11:00:30.693Z,102021.47
2022-12-05T11:02:34.557Z,102017.13
2022-12-05T11:04:45.322Z,102028.41
2022-12-05T11:06:51.340Z,102027.84
2022-12-05T11:09:04.566Z,102032.84
2022-12-05T11:11:18.045Z,102029.53
2022-12-05T11:13:26.237Z,102029.78
2022-12-05T11:15:31.101Z,102030.47
2022-12-05T11:17:37.776Z,102027.97
2022-12-05T11:19:39.936Z,102031.47
2022-12-05T11:21:43.895Z,102033.97
2022-12-05T11:23:46.601Z,102027.91
2022-12-05T11:25:49.109Z,102025.19
2022-12-05T11:27:51.160Z,102027.97
2022-12-05T11:29:56.222Z,102025.13
2022-12-05T11:31:58.496Z,102021.94
2022-12-05T11:34:13.811Z,102027.97
2022-12-05T11:36:22.641Z,102031.22
2022-12-05T11:38:28.483Z,102034.16
2022-12-05T11:40:45.681Z,102027.84
2022-12-05T11:43:05.599Z,102024.81
2022-12-05T11:45:26.275Z,102029.13
2022-12-05T11:47:47.586Z,102028.59
2022-12-05T11:50:00.076Z,102027.09
2022-12-05T11:52:18.661Z,102019.69
2022-12-05T11:54:56.821Z,102016.13
2022-12-05T11:56:57.556Z,102013.78
2022-12-05T11:59:09.802Z,102023.38
2022-12-05T12:01:27.505Z,102018.47
2022-12-05T12:03:38.917Z,102019.34
2022-12-05T12:05:49.315Z,102021.84
2022-12-05T12:08:12.374Z,102014.84
2022-12-05T12:10:42.543Z,102015.47
2022-12-05T12:12:54.223Z,102014.19
2022-12-05T12:15:15.565Z,102013.50
2022-12-05T12:17:40.597Z,102006.53
2022-12-05T12:20:02.635Z,102003.22
2022-12-05T12:22:15.081Z,102006.06
2022-12-05T12:24:29.187Z,102014.84
2022-12-05T12:26:40.941Z,102013.97
2022-12-05T12:28:55.708Z,102008.06
2022-12-05T12:31:06.156Z,102008.22
2022-12-05T12:33:26.842Z,102012.50
2022-12-05T12:35:33.297Z,102001.56
2022-12-05T12:37:54.240Z,102008.34
2022-12-05T12:40:05.842Z,102004.25
2022-12-05T12:42:18.645Z,102002.78
2022-12-05T12:44:39.766Z,102008.97
2022-12-05T12:46:52.290Z,102014.06
2022-12-05T12:49:16.654Z,102012.78
2022-12-05T12:51:19.409Z,102010.63
2022-12-05T12:53:38.661Z,102014.00
2022-12-05T12:55:41.267Z,102009.78
2022-12-05T12:58:02.711Z,102012.13
2022-12-05T13:00:23.699Z,102012.53
2022-12-05T13:02:32.374Z,102008.31
2022-12-05T13:04:45.192Z,102009.25
2022-12-05T13:06:58.413Z,102014.34
2022-12-05T13:09:03.919Z,102014.13
2022-12-05T13:11:10.734Z,102015.00
2022-12-05T13:13:19.057Z,102009.25
2022-12-05T13:15:31.904Z,102006.41
2022-12-05T13:17:34.415Z,102008.91
2022-12-05T13:19:48.988Z,102000.66
2022-12-05T13:21:52.136Z,102003.84
2022-12-05T13:24:03.557Z,102002.72
2022-12-05T13:26:10.776Z,102001.41
2022-12-05T13:28:32.182Z,102000.31
2022-12-05T13:30:56.432Z,102000.59
2022-12-05T13:33:05.097Z,101999.00
2022-12-05T13:35:07.662Z,101991.19
2022-12-05T13:37:27.444Z,101994.59
2022-12-05T13:39:39.477Z,101995.00
2022-12-05T13:41:55.393Z,101999.31
2022-12-05T13:44:06.307Z,101998.44
2022-12-05T13:46:14.003Z,102000.97
2022-12-05T13:48:23.337Z,102000.97
2022-12-05T13:50:33.407Z,102004.59
2022-12-05T13:52:48.596Z,102010.66
2022-12-05T13:55:07.064Z,102009.56
2022-12-05T13:57:45.596Z,102004.53
2022-12-05T14:00:00.292Z,102004.75
2022-12-05T14:02:02.759Z,102003.66
2022-12-05T14:04:23.695Z,102001.38
2022-12-05T14:06:56.358Z,102010.81
2022-12-05T14:08:58.619Z,102005.72
2022-12-05T14:11:01.642Z,102002.25
2022-12-05T14:13:24.029Z,102008.66
2022-12-05T14:15:38.131Z,102009.16
2022-12-05T14:17:45.382Z,102007.91
2022-12-05T14:19:53.231Z,102002.88
2022-12-05T14:22:14.476Z,102001.94
2022-12-05T14:24:33.491Z,102004.75
2022-12-05T14:26:51.724Z,102005.28
2022-12-05T14:29:00.955Z,102006.19
2022-12-05T14:31:13.780Z,102010.59
2022-12-05T14:33:18.269Z,102007.19
2022-12-05T14:35:24.865Z,102009.75
2022-12-05T14:37:32.050Z,102010.66
2022-12-05T14:39:50.414Z,102007.97
2022-12-05T14:41:58.718Z,102013.16
2022-12-05T14:44:08.190Z,102009.41
2022-12-05T14:46:25.124Z,102014.16
2022-12-05T14:48:31.419Z,102018.97
2022-12-05T14:50:36.374Z,102018.09
2022-12-05T14:52:41.298Z,102014.63
2022-12-05T14:54:44.458Z,102013.94
2022-12-05T14:56:53.243Z,102019.75
2022-12-05T14:59:00.840Z,102029.28
2022-12-05T15:01:09.567Z,102019.59
2022-12-05T15:03:25.519Z,102020.88
2022-12-05T15:05:33.515Z,102021.63
2022-12-05T15:07:39.621Z,102034.09
2022-12-05T15:09:55.335Z,102028.78
2022-12-05T15:12:02.409Z,102043.25
2022-12-05T15:14:09.274Z,102043.00
2022-12-05T15:16:20.412Z,102039.59
2022-12-05T15:18:31.007Z,102052.47
2022-12-05T15:20:47.212Z,102037.03
2022-12-05T15:22:49.880Z,102042.78
2022-12-05T15:24:52.536Z,102041.25
2022-12-05T15:26:56.794Z,102045.28
2022-12-05T15:29:09.053Z,102045.09
2022-12-05T15:31:14.519Z,102041.91
2022-12-05T15:33:17.850Z,102047.81
2022-12-05T15:35:24.297Z,102040.97
2022-12-05T15:37:47.650Z,102049.38
2022-12-05T15:39:52.648Z,102050.03
2022-12-05T15:41:56.876Z,102047.47
2022-12-05T15:44:00.323Z,102047.63
2022-12-05T15:46:26.299Z,102050.91
2022-12-05T15:48:28.666Z,102056.63
2022-12-05T15:50:39.808Z,102067.31
2022-12-05T15:52:48.578Z,102060.53
2022-12-05T15:54:54.262Z,102064.75
2022-12-05T15:57:20.411Z,102069.06
2022-12-05T15:59:29.844Z,102066.56
2022-12-05T16:01:38.728Z,102067.31
2022-12-05T16:03:48.994Z,102075.03
2022-12-05T16:06:05.070Z,102070.75
2022-12-05T16:08:10.021Z,102069.00
2022-12-05T16:10:14.761Z,102074.16
2022-12-05T16:12:28.006Z,102071.47
2022-12-05T16:17:01.957Z,102071.22
2022-12-05T16:19:13.553Z,102076.31
2022-12-05T16:21:38.493Z,102078.88
2022-12-05T16:23:44.753Z,102078.00
2022-12-05T16:25:47.690Z,102075.50
2022-12-05T16:28:01.432Z,102082.38
2022-12-05T16:30:14.273Z,102083.13
2022-12-05T16:32:25.103Z,102083.06
2022-12-05T16:34:29.113Z,102083.84
2022-12-05T16:36:32.973Z,102084.59
2022-12-05T16:38:37.293Z,102084.25
2022-12-05T16:40:43.741Z,102082.72
2022-12-05T16:42:46.726Z,102083.72
2022-12-05T16:44:50.361Z,102081.78
2022-12-05T16:46:54.060Z,102081.78
2022-12-05T16:49:16.251Z,102079.91
2022-12-05T16:51:26.666Z,102091.31
2022-12-05T16:53:34.016Z,102083.47
2022-12-05T16:55:39.326Z,102085.34
2022-12-05T16:57:42.173Z,102092.88
2022-12-05T16:59:49.231Z,102093.00
2022-12-05T17:01:51.955Z,102091.94
2022-12-05T17:03:56.675Z,102093.66
2022-12-05T17:06:00.476Z,102101.22
2022-12-05T17:08:04.395Z,102095.66
2022-12-05T17:10:08.693Z,102095.94
2022-12-05T17:12:19.429Z,102103.59
2022-12-05T17:14:22.190Z,102105.22
2022-12-05T17:16:27.181Z,102104.41
2022-12-05T17:18:32.042Z,102100.28
2022-12-05T17:20:35.635Z,102101.97
2022-12-05T17:22:38.565Z,102096.59
2022-12-05T17:24:41.499Z,102098.53
2022-12-05T17:26:45.264Z,102100.22
2022-12-05T17:28:49.140Z,102105.50
2022-12-05T17:30:53.997Z,102109.69
2022-12-05T17:33:00.475Z,102112.38
2022-12-05T17:35:06.780Z,102112.38
2022-12-05T17:37:10.286Z,102116.78
2022-12-05T17:39:13.357Z,102117.53
2022-12-05T17:41:20.687Z,102121.22
2022-12-05T17:43:25.449Z,102119.53
2022-12-05T17:45:28.939Z,102117.75
2022-12-05T17:47:32.040Z,102114.16
2022-12-05T17:49:34.736Z,102118.69
2022-12-05T17:51:52.572Z,102126.28
2022-12-05T17:54:02.268Z,102128.84
2022-12-05T17:56:06.120Z,102122.72
2022-12-05T17:58:10.873Z,102132.06
2022-12-05T18:00:16.296Z,102137.44
2022-12-05T18:02:21.140Z,102136.47
2022-12-05T18:04:24.493Z,102138.03
2022-12-05T18:06:29.470Z,102145.00
2022-12-05T18:08:32.330Z,102147.44
2022-12-05T18:10:36.659Z,102136.47
2022-12-05T18:12:39.447Z,102147.50
2022-12-05T18:14:41.848Z,102148.31
2022-12-05T18:16:44.739Z,102137.16
2022-12-05T18:18:47.567Z,102143.97
2022-12-05T18:20:50.440Z,102152.25
2022-12-05T18:22:53.118Z,102139.66
2022-12-05T18:24:57.754Z,102143.91
2022-12-05T18:27:00.889Z,102144.56
2022-12-05T18:29:04.367Z,102143.41
2022-12-05T18:31:10.550Z,102147.06
2022-12-05T18:33:17.306Z,102147.88
2022-12-05T18:35:39.806Z,102147.94
2022-12-05T18:37:42.379Z,102153.25
2022-12-05T18:39:46.239Z,102153.06
2022-12-05T18:41:49.006Z,102151.31
2022-12-05T18:43:52.200Z,102155.66
2022-12-05T18:45:58.343Z,102158.00
2022-12-05T18:48:23.521Z,102162.78
2022-12-05T18:50:24.934Z,102163.78
2022-12-05T18:52:27.739Z,102164.69
2022-12-05T18:54:30.582Z,102168.22
2022-12-05T18:56:35.937Z,102163.78
2022-12-05T18:58:39.480Z,102170.63
2022-12-05T19:00:42.512Z,102172.53
2022-12-05T19:02:45.245Z,102177.63
2022-12-05T19:04:48.677Z,102178.94
2022-12-05T19:06:55.611Z,102174.66
2022-12-05T19:09:01.794Z,102178.31
2022-12-05T19:11:05.941Z,102181.00
2022-12-05T19:13:08.762Z,102182.59
2022-12-05T19:15:12.372Z,102183.47
2022-12-05T19:17:15.133Z,102183.31
2022-12-05T19:19:18.418Z,102177.25
2022-12-05T19:21:20.961Z,102184.88
2022-12-05T19:23:24.328Z,102187.59
2022-12-05T19:25:26.906Z,102182.44
2022-12-05T19:27:31.932Z,102185.81
2022-12-05T19:29:34.434Z,102189.13
2022-12-05T19:31:37.018Z,102189.94
2022-12-05T19:33:42.110Z,102186.50
2022-12-05T19:35:44.639Z,102186.19
2022-12-05T19:37:48.384Z,102184.50
2022-12-05T19:39:52.348Z,102188.00
2022-12-05T19:41:57.920Z,102188.00
2022-12-05T19:44:01.751Z,102188.63
2022-12-05T19:46:07.936Z,102187.72
2022-12-05T19:48:10.580Z,102194.97
2022-12-05T19:50:13.118Z,102195.19
2022-12-05T19:52:19.294Z,102198.91
2022-12-05T19:54:24.640Z,102198.03
2022-12-05T19:56:28.918Z,102201.69
2022-12-05T19:58:34.858Z,102193.31
2022-12-05T20:00:37.660Z,102196.63
2022-12-05T20:02:40.607Z,102212.69
2022-12-05T20:04:43.726Z,102211.06
2022-12-05T20:06:49.616Z,102209.09
2022-12-05T20:08:53.947Z,102209.75
2022-12-05T20:10:56.475Z,102215.03
2022-12-05T20:13:00.572Z,102204.78
2022-12-05T20:15:06.066Z,102209.38
2022-12-05T20:17:08.476Z,102204.16
2022-12-05T20:19:11.795Z,102204.63
2022-12-05T20:21:18.125Z,102200.31
2022-12-05T20:23:20.601Z,102200.31
2022-12-05T20:25:23.094Z,102199.28
2022-12-05T20:27:25.860Z,102208.75
2022-12-05T20:29:28.630Z,102209.13
2022-12-05T20:31:35.737Z,102209.13
2022-12-05T20:33:39.426Z,102200.63
2022-12-05T20:35:42.644Z,102204.19
2022-12-05T20:37:45.537Z,102205.16
2022-12-05T20:39:50.420Z,102206.75
2022-12-05T20:41:53.117Z,102207.84
2022-12-05T20:43:58.571Z,102214.44
2022-12-05T20:46:13.020Z,102213.31
2022-12-05T20:48:15.704Z,102211.78
2022-12-05T20:50:18.871Z,102217.97
2022-12-05T20:52:21.307Z,102219.59
2022-12-05T20:54:23.862Z,102216.75
2022-12-05T20:56:29.888Z,102211.69
2022-12-05T20:58:32.574Z,102215.41
2022-12-05T21:00:35.011Z,102215.06
2022-12-05T21:02:37.651Z,102216.28
2022-12-05T21:04:41.472Z,102220.38
2022-12-05T21:06:47.017Z,102212.75
2022-12-05T21:08:50.755Z,102211.22
2022-12-05T21:10:56.296Z,102222.38
2022-12-05T21:13:01.768Z,102224.94
2022-12-05T21:15:04.892Z,102218.47
2022-12-05T21:17:07.453Z,102227.25
2022-12-05T21:19:10.135Z,102226.47
2022-12-05T21:21:16.176Z,102226.78
2022-12-05T21:23:18.746Z,102228.47
2022-12-05T21:25:22.348Z,102236.34
2022-12-05T21:27:24.890Z,102241.47
2022-12-05T21:29:27.541Z,102234.00
2022-12-05T21:31:34.613Z,102232.09
2022-12-05T21:33:37.195Z,102225.91
2022-12-05T21:35:39.671Z,102222.84
2022-12-05T21:37:41.945Z,102222.84
2022-12-05T21:39:44.534Z,102223.03
2022-12-05T21:41:47.300Z,102222.16
2022-12-05T21:43:54.606Z,102217.97
2022-12-05T21:45:57.980Z,102217.03
2022-12-05T21:48:00.665Z,102213.66
2022-12-05T21:50:03.415Z,102213.00
2022-12-05T21:52:05.960Z,102207.78
2022-12-05T21:54:08.851Z,102214.69
2022-12-05T21:56:16.447Z,102212.91
2022-12-05T21:58:18.740Z,102214.19
2022-12-05T22:00:20.963Z,102212.84
2022-12-05T22:02:23.414Z,102210.44
2022-12-05T22:04:25.976Z,102214.81
2022-12-05T22:06:31.434Z,102216.22
2022-12-05T22:08:34.510Z,102218.94
2022-12-05T22:10:37.275Z,102215.41
2022-12-05T22:12:40.125Z,102217.03
2022-12-05T22:14:42.865Z,102212.91
2022-12-05T22:16:45.274Z,102212.19
2022-12-05T22:18:48.207Z,102220.13
2022-12-05T22:21:01.555Z,102216.28
2022-12-05T22:23:03.930Z,102224.22
2022-12-05T22:25:06.849Z,102217.81
2022-12-05T22:27:09.136Z,102225.25
2022-12-05T22:29:11.421Z,102224.59
2022-12-05T22:31:15.730Z,102228.97
2022-12-05T22:33:18.317Z,102225.91
2022-12-05T22:35:20.509Z,102234.16
2022-12-05T22:37:22.804Z,102235.44
2022-12-05T22:39:25.388Z,102232.09
2022-12-05T22:41:27.742Z,102231.28
2022-12-05T22:43:32.051Z,102235.53
2022-12-05T22:45:36.076Z,102232.72
2022-12-05T22:47:38.114Z,102234.41
2022-12-05T22:49:40.176Z,102228.41
2022-12-05T22:51:42.277Z,102230.16
2022-12-05T22:53:45.499Z,102234.50
2022-12-05T22:55:47.904Z,102227.69
2022-12-05T22:57:49.848Z,102234.31
2022-12-05T22:59:51.803Z,102235.31
2022-12-05T23:01:53.735Z,102228.28
2022-12-05T23:03:59.189Z,102224.22
2022-12-05T23:06:11.240Z,102224.16
2022-12-05T23:08:14.343Z,102230.16
2022-12-05T23:10:16.685Z,102224.84
2022-12-05T23:12:19.196Z,102231.59
2022-12-05T23:14:21.473Z,102225.56
2022-12-05T23:16:26.721Z,102232.16
2022-12-05T23:18:29.055Z,102227.13
2022-12-05T23:20:31.110Z,102225.81
2022-12-05T23:22:35.315Z,102218.91
2022-12-05T23:24:37.495Z,102223.16
2022-12-05T23:26:44.576Z,102224.94
2022-12-05T23:28:46.761Z,102223.31
2022-12-05T23:30:48.883Z,102229.19
2022-12-05T23:32:51.184Z,102224.81
2022-12-05T23:34:53.334Z,102219.31
2022-12-05T23:36:55.545Z,102225.31
2022-12-05T23:38:57.725Z,102219.22
2022-12-05T23:41:01.375Z,102224.28
2022-12-05T23:43:04.515Z,102220.91
2022-12-05T23:45:07.875Z,102221.88
2022-12-05T23:47:10.046Z,102232.06
2022-12-05T23:49:12.240Z,102222.09
2022-12-05T23:51:16.809Z,102228.03
2022-12-05T23:53:18.957Z,102223.47
2022-12-05T23:55:21.136Z,102232.69
2022-12-05T23:57:23.394Z,102229.72
2022-12-05T23:59:25.483Z,102234.03
